Time;durP1;ratioP1;P1;durP2;ratioP2;P2;SDS_P1;SDS_P2;PMS_P1;PMS_P2;Temp;Humidity;BMP_temperature;BMP_pressure;BME280_temperature;BME280_humidity;BME280_pressure;Samples;Min_cycle;Max_cycle;Signal;HPM_P1;HPM_P2
2022/07/18 00:06:30;;;;;;;7.70;1.47;;;;;;;15.45;74.63;98423.47;18503124;32;20045;-63
2022/07/18 00:16:33;;;;;;;1.73;1.07;;;;;;;15.24;74.23;98424.41;18493460;32;20049;-63
2022/07/18 00:26:37;;;;;;;1.87;1.20;;;;;;;15.06;75.06;98417.72;18505639;32;20057;-63
2022/07/18 00:36:39;;;;;;;1.60;1.30;;;;;;;14.89;76.64;98418.06;18491821;32;20071;-63
2022/07/18 00:46:41;;;;;;;3.10;1.30;;;;;;;14.78;76.92;98424.66;18505594;32;20406;-63
2022/07/18 00:56:44;;;;;;;2.23;1.50;;;;;;;14.69;77.35;98413.53;18490211;32;20493;-63
2022/07/18 01:06:49;;;;;;;2.27;1.33;;;;;;;14.57;77.28;98427.44;18503328;32;20079;-63
2022/07/18 01:16:52;;;;;;;3.00;1.23;;;;;;;14.41;77.74;98431.28;18503610;32;20057;-63
2022/07/18 01:26:54;;;;;;;1.53;1.33;;;;;;;14.28;78.85;98423.69;18503206;32;20459;-63
2022/07/18 01:36:56;;;;;;;2.13;1.53;;;;;;;14.13;79.49;98441.69;18502400;32;20067;-63
2022/07/18 01:46:59;;;;;;;2.27;1.70;;;;;;;14.01;79.47;98441.97;18502210;32;20074;-63
2022/07/18 01:57:03;;;;;;;1.80;1.37;;;;;;;13.88;80.05;98440.63;18500830;32;20049;-63
2022/07/18 02:07:05;;;;;;;1.70;1.33;;;;;;;13.73;80.09;98446.03;18500561;32;20050;-63
2022/07/18 02:17:08;;;;;;;2.57;1.53;;;;;;;13.59;81.20;98434.09;18499815;32;20049;-63
2022/07/18 02:27:10;;;;;;;1.47;1.10;;;;;;;13.46;82.34;98424.59;18484797;32;20097;-63
2022/07/18 02:37:12;;;;;;;3.00;1.30;;;;;;;13.34;82.55;98422.09;18498599;32;20375;-63
2022/07/18 02:47:15;;;;;;;3.93;1.47;;;;;;;13.22;82.77;98423.16;18496862;32;20045;-63
2022/07/18 02:57:17;;;;;;;2.03;1.40;;;;;;;13.12;83.40;98419.62;18497330;32;20067;-63
2022/07/18 03:07:19;;;;;;;1.10;1.00;;;;;;;13.05;84.49;98422.56;18483125;32;20060;-63
2022/07/18 03:17:21;;;;;;;1.50;1.30;;;;;;;12.98;84.46;98420.12;18496749;32;20049;-63
2022/07/18 03:27:24;;;;;;;1.60;1.20;;;;;;;12.88;83.28;98426.34;18481767;32;20057;-63
2022/07/18 03:37:26;;;;;;;1.50;1.00;;;;;;;12.79;84.14;98419.78;18495214;32;20058;-63
2022/07/18 03:47:28;;;;;;;1.63;1.13;;;;;;;12.70;85.18;98424.06;18495178;32;20049;-63
2022/07/18 03:57:31;;;;;;;2.33;1.47;;;;;;;12.65;84.94;98427.59;18494978;32;20049;-63
2022/07/18 04:07:33;;;;;;;4.27;1.37;;;;;;;12.60;84.44;98429.47;18494813;32;20441;-64
2022/07/18 04:17:35;;;;;;;2.33;1.30;;;;;;;12.64;84.38;98431.37;18494639;32;20447;-63
2022/07/18 04:27:38;;;;;;;3.97;1.47;;;;;;;12.74;85.49;98430.59;18494376;32;20108;-64
2022/07/18 04:37:40;;;;;;;3.90;1.27;;;;;;;12.88;84.97;98437.19;18494256;32;20454;-64
2022/07/18 04:47:42;;;;;;;1.73;1.20;;;;;;;13.07;84.92;98439.41;18495961;32;20168;-64
2022/07/18 04:57:45;;;;;;;1.60;1.27;;;;;;;13.33;85.37;98432.16;18504172;32;20068;-64
2022/07/18 05:07:49;;;;;;;2.20;1.60;;;;;;;13.65;85.73;98441.16;18504242;32;20083;-63
2022/07/18 05:17:52;;;;;;;3.50;1.30;;;;;;;14.03;84.51;98430.81;18489730;32;20057;-63
2022/07/18 05:27:54;;;;;;;2.27;1.50;;;;;;;14.44;83.54;98428.00;18503386;32;20053;-64
2022/07/18 05:37:57;;;;;;;2.90;1.37;;;;;;;14.83;83.07;98427.38;18488254;32;20369;-64
2022/07/18 05:47:59;;;;;;;1.80;1.40;;;;;;;15.26;80.65;98432.31;18501887;32;20053;-64
2022/07/18 05:58:01;;;;;;;1.45;1.10;;;;;;;15.70;79.25;98428.72;18500424;32;20108;-64
2022/07/18 06:08:04;;;;;;;2.90;1.40;;;;;;;16.18;77.61;98428.03;18500465;32;20049;-64
2022/07/18 06:18:07;;;;;;;1.75;1.23;;;;;;;16.77;75.69;98427.94;18486122;32;20049;-64
2022/07/18 06:28:09;;;;;;;2.92;1.55;;;;;;;17.39;74.83;98425.25;18485064;32;20049;-64
2022/07/18 06:38:11;;;;;;;2.70;1.90;;;;;;;18.22;72.81;98423.91;18498761;32;20057;-64
2022/07/18 06:48:15;;;;;;;3.97;2.47;;;;;;;19.10;69.14;98431.22;18497925;32;20087;-64
2022/07/18 06:58:18;;;;;;;2.65;2.00;;;;;;;19.79;63.47;98422.75;18497525;32;20109;-64
2022/07/18 07:08:20;;;;;;;3.30;2.10;;;;;;;20.37;62.51;98425.69;18497041;32;20120;-64
2022/07/18 07:18:22;;;;;;;3.47;2.23;;;;;;;20.97;61.57;98418.00;18496652;32;20097;-63
2022/07/18 07:28:25;;;;;;;4.50;2.03;;;;;;;21.49;54.24;98422.75;18495406;32;20101;-64
2022/07/18 07:38:29;;;;;;;;;;;;;;;21.95;55.89;98424.03;18496091;32;20052;-64
2022/07/18 07:48:31;;;;;;;2.67;1.77;;;;;;;22.60;55.29;98432.25;18495703;32;19967;-64
2022/07/18 07:58:33;;;;;;;2.77;1.90;;;;;;;23.10;49.30;98433.44;18494819;32;20057;-63
2022/07/18 08:08:36;;;;;;;2.70;1.95;;;;;;;23.72;50.38;98428.28;18480917;32;20076;-63
2022/07/18 08:18:38;;;;;;;3.42;2.22;;;;;;;24.32;46.59;98420.53;18494713;32;20087;-63
2022/07/18 08:28:41;;;;;;;4.47;2.20;;;;;;;24.97;45.61;98417.16;18503552;32;20053;-64
2022/07/18 08:38:43;;;;;;;2.85;1.90;;;;;;;25.57;43.12;98416.56;18506735;32;20053;-64
2022/07/18 08:48:51;;;;;;;2.65;2.05;;;;;;;26.10;40.31;98407.34;18491346;32;20425;-64
2022/07/18 08:58:54;;;;;;;2.67;2.20;;;;;;;26.65;40.68;98397.22;18439285;32;20063;-65
2022/07/18 09:09:00;;;;;;;4.82;2.30;;;;;;;27.26;40.61;98392.31;18425933;32;20037;-66
2022/07/18 09:19:06;;;;;;;3.45;2.67;;;;;;;27.64;38.10;98396.28;18439189;32;20108;-64
2022/07/18 09:29:15;;;;;;;3.33;2.53;;;;;;;28.13;37.57;98397.62;18437879;32;20471;-64
2022/07/18 09:39:29;;;;;;;4.03;2.08;;;;;;;28.58;37.89;98395.19;18438212;32;20095;-65
2022/07/18 09:49:34;;;;;;;2.53;2.20;;;;;;;29.08;36.47;98387.63;18437364;32;20088;-64
2022/07/18 09:59:42;;;;;;;2.80;2.35;;;;;;;29.56;34.74;98386.25;18496996;32;20094;-64
2022/07/18 10:09:50;;;;;;;3.12;2.05;;;;;;;30.16;35.22;98381.75;18500737;32;20052;-64
2022/07/18 10:19:53;;;;;;;2.50;1.80;;;;;;;30.58;29.84;98377.75;18485565;32;20053;-64
2022/07/18 10:30:10;;;;;;;4.22;2.05;;;;;;;30.85;32.41;98363.56;18499426;32;20484;-65
2022/07/18 10:40:28;;;;;;;3.40;1.77;;;;;;;31.29;29.73;98370.22;18497733;32;20072;-64
2022/07/18 10:51:11;;;;;;;2.17;1.98;;;;;;;31.75;29.02;98364.84;18497686;32;20318;-65
2022/07/18 11:01:17;;;;;;;2.58;1.77;;;;;;;32.24;28.88;98367.34;18497269;32;20064;-64
2022/07/18 11:11:26;;;;;;;2.47;1.73;;;;;;;32.32;26.91;98360.53;18497564;32;20120;-64
2022/07/18 11:21:32;;;;;;;2.97;1.83;;;;;;;32.84;30.51;98348.91;18495553;32;20093;-63
2022/07/18 11:31:56;;;;;;;1.83;1.65;;;;;;;33.13;28.02;98350.84;18496061;32;20072;-64
2022/07/18 11:42:00;;;;;;;2.80;1.50;;;;;;;33.60;26.87;98345.84;18481887;32;20065;-63
2022/07/18 11:52:03;;;;;;;1.75;1.62;;;;;;;34.03;25.04;98334.38;18495068;32;20046;-64
2022/07/18 12:02:07;;;;;;;2.85;1.70;;;;;;;34.17;23.23;98322.25;18489008;32;20049;-64
2022/07/18 12:12:12;;;;;;;1.73;1.62;;;;;;;34.53;24.81;98316.34;18507775;32;20508;-64
2022/07/18 12:22:24;;;;;;;3.47;1.85;;;;;;;35.05;24.01;98318.22;18507447;32;20102;-64
2022/07/18 12:32:27;;;;;;;2.03;1.42;;;;;;;35.62;25.37;98315.91;18506641;32;20054;-64
2022/07/18 12:42:43;;;;;;;1.90;1.27;;;;;;;35.78;24.48;98307.63;18506067;32;20120;-64
2022/07/18 12:52:45;;;;;;;3.05;1.85;;;;;;;35.87;21.78;98300.72;18504384;32;20056;-63
2022/07/18 13:02:48;;;;;;;5.00;1.95;;;;;;;36.17;23.89;98294.19;18501451;32;20144;-63
2022/07/18 13:12:51;;;;;;;2.17;1.90;;;;;;;36.45;22.85;98284.47;18498690;32;20110;-64
2022/07/18 13:22:54;;;;;;;4.30;2.00;;;;;;;36.19;21.32;98280.47;18485889;32;20084;-63
2022/07/18 13:32:57;;;;;;;4.70;2.67;;;;;;;36.87;22.51;98272.03;18499279;32;20120;-65
2022/07/18 13:43:00;;;;;;;5.20;2.30;;;;;;;37.59;25.42;98259.22;18498987;32;20069;-63
2022/07/18 13:53:03;;;;;;;3.65;2.30;;;;;;;37.98;20.56;98251.84;18498841;32;20049;-63
2022/07/18 14:03:06;;;;;;;4.90;2.42;;;;;;;38.42;23.81;98241.03;18501140;32;20441;-63
2022/07/18 14:13:09;;;;;;;2.95;2.20;;;;;;;39.02;25.04;98228.47;18500502;32;20052;-63
2022/07/18 14:23:11;;;;;;;5.95;2.50;;;;;;;39.31;17.82;98217.09;18499244;32;20077;-61
2022/07/18 14:33:14;;;;;;;3.40;2.58;;;;;;;39.51;22.03;98215.28;18485086;32;20061;-61
2022/07/18 14:43:16;;;;;;;3.80;2.10;;;;;;;39.82;20.68;98207.78;18484893;32;20069;-61
2022/07/18 14:53:19;;;;;;;2.87;2.22;;;;;;;39.63;23.21;98203.19;18497830;32;20070;-61
2022/07/18 15:03:22;;;;;;;2.60;2.05;;;;;;;39.56;23.71;98192.88;18496277;32;20057;-61
2022/07/18 15:13:45;;;;;;;2.97;2.78;;;;;;;37.99;21.52;98180.06;18497070;32;20061;-61
2022/07/18 15:23:48;;;;;;;4.60;2.80;;;;;;;36.43;22.53;98160.19;18482375;32;20054;-60
2022/07/18 15:33:51;;;;;;;5.22;2.65;;;;;;;35.76;23.83;98158.16;18481647;32;20572;-61
2022/07/18 15:43:55;;;;;;;4.62;2.40;;;;;;;35.21;24.47;98136.94;18495571;32;20404;-61
2022/07/18 15:54:05;;;;;;;4.00;2.50;;;;;;;34.65;23.66;98124.06;18493943;32;20482;-61
2022/07/18 16:04:08;;;;;;;4.15;3.03;;;;;;;34.28;24.36;98117.25;18495679;32;20061;-61
2022/07/18 16:14:11;;;;;;;3.80;2.65;;;;;;;33.75;26.42;98100.59;18493589;32;20076;-61
2022/07/18 16:24:14;;;;;;;2.72;2.33;;;;;;;33.47;28.01;98089.59;18494457;32;20079;-61
2022/07/18 16:34:16;;;;;;;3.08;2.17;;;;;;;33.10;28.74;98075.88;18494206;32;20425;-61
2022/07/18 16:44:19;;;;;;;2.95;2.55;;;;;;;32.90;28.45;98058.00;18497144;32;20435;-61
2022/07/18 16:54:22;;;;;;;3.45;3.15;;;;;;;32.93;32.16;98057.19;18504884;32;20417;-60
2022/07/18 17:04:24;;;;;;;50.38;29.00;;;;;;;33.32;35.53;98050.50;18490842;32;20057;-61
2022/07/18 17:14:27;;;;;;;20.25;11.90;;;;;;;32.38;36.55;98053.91;18504498;32;20090;-61
2022/07/18 17:24:30;;;;;;;5.65;4.05;;;;;;;31.84;36.53;98051.28;18503246;32;20087;-61
2022/07/18 17:34:33;;;;;;;4.43;3.20;;;;;;;31.06;31.05;98042.56;18503269;32;20360;-60
2022/07/18 17:44:37;;;;;;;4.32;2.72;;;;;;;30.62;38.90;98045.69;18488637;32;20064;-61
2022/07/18 17:54:40;;;;;;;5.00;2.55;;;;;;;30.40;36.20;98046.38;18500552;32;20486;-61
2022/07/18 18:04:45;;;;;;;3.80;2.60;;;;;;;30.35;33.44;98032.00;18501047;32;20349;-61
2022/07/18 18:14:48;;;;;;;3.90;2.30;;;;;;;30.49;37.57;98054.41;18472848;32;20069;-61
2022/07/18 18:24:50;;;;;;;7.47;3.00;;;;;;;29.78;38.50;98049.25;18485713;32;20577;-62
2022/07/18 18:34:53;;;;;;;2.70;2.50;;;;;;;29.39;36.13;98051.38;18498290;32;20068;-63
2022/07/18 18:44:58;;;;;;;2.92;2.20;;;;;;;28.69;41.24;98044.81;18484449;32;20060;-63
2022/07/18 18:55:02;;;;;;;2.85;2.20;;;;;;;27.93;45.47;98051.41;18498088;32;20437;-63
2022/07/18 19:05:05;;;;;;;2.75;2.17;;;;;;;27.16;49.94;98054.19;18497304;32;20061;-63
2022/07/18 19:15:08;;;;;;;3.05;2.05;;;;;;;26.45;51.41;98035.91;18470268;32;20399;-63
2022/07/18 19:25:11;;;;;;;2.55;2.17;;;;;;;25.76;51.41;98041.19;18482579;32;20097;-63
2022/07/18 19:35:13;;;;;;;4.45;2.60;;;;;;;25.15;52.75;98044.13;18495259;32;20120;-63
2022/07/18 19:45:15;;;;;;;4.35;2.45;;;;;;;24.58;55.27;98043.41;18495968;32;20436;-63
2022/07/18 19:55:18;;;;;;;2.83;2.25;;;;;;;24.02;57.85;98053.34;18495193;32;20057;-63
2022/07/18 20:05:20;;;;;;;;;;;;;;;23.55;58.28;98048.34;18495435;32;20141;-63
2022/07/18 20:15:24;;;;;;;3.22;2.67;;;;;;;23.13;59.36;98051.34;18495115;32;19987;-63
2022/07/18 20:25:27;;;;;;;3.42;2.47;;;;;;;22.76;60.68;98054.84;18505156;32;20077;-63
2022/07/18 20:35:30;;;;;;;2.70;2.05;;;;;;;22.34;62.32;98061.25;18479670;32;20053;-63
2022/07/18 20:45:32;;;;;;;3.33;2.30;;;;;;;21.95;63.12;98063.34;18506025;32;20061;-63
2022/07/18 20:55:36;;;;;;;3.50;2.60;;;;;;;21.64;64.16;98072.78;18491184;32;20064;-63
2022/07/18 21:05:39;;;;;;;5.30;2.58;;;;;;;21.29;64.89;98067.41;18504843;32;20449;-63
2022/07/18 21:15:41;;;;;;;3.30;2.30;;;;;;;20.98;66.30;98071.28;18504109;32;20064;-63
2022/07/18 21:25:45;;;;;;;6.07;2.50;;;;;;;20.74;68.63;98079.28;18503651;32;20099;-63
2022/07/18 21:35:47;;;;;;;3.90;2.50;;;;;;;20.45;69.30;98084.31;18501663;32;20065;-63
2022/07/18 21:45:54;;;;;;;4.50;2.60;;;;;;;20.23;69.99;98079.81;18502427;32;20072;-63
2022/07/18 21:55:56;;;;;;;5.30;2.33;;;;;;;20.05;70.19;98064.47;18501650;32;20057;-63
2022/07/18 22:05:59;;;;;;;2.30;2.10;;;;;;;19.88;71.30;98068.00;18501337;32;20068;-63
2022/07/18 22:16:01;;;;;;;6.45;2.97;;;;;;;19.63;72.25;98064.87;18486461;32;20057;-63
2022/07/18 22:26:04;;;;;;;2.75;2.35;;;;;;;19.40;72.66;98073.22;18499909;32;20057;-63
2022/07/18 22:36:07;;;;;;;3.43;2.80;;;;;;;19.18;73.49;98071.38;18485362;32;20072;-63
2022/07/18 22:46:09;;;;;;;4.40;2.80;;;;;;;18.95;73.95;98056.91;18498156;32;20467;-62
2022/07/18 22:56:12;;;;;;;4.60;2.37;;;;;;;18.76;74.31;98060.69;18497875;32;20365;-63
2022/07/18 23:06:14;;;;;;;3.17;2.40;;;;;;;18.51;74.82;98053.91;18470438;32;20117;-63
2022/07/18 23:16:16;;;;;;;3.15;2.20;;;;;;;18.33;74.86;98055.75;18497137;32;20076;-63
2022/07/18 23:26:19;;;;;;;3.95;2.33;;;;;;;18.12;75.28;98044.50;18496606;32;20394;-63
2022/07/18 23:36:21;;;;;;;2.80;2.50;;;;;;;17.93;75.60;98034.53;18495090;32;20057;-63
2022/07/18 23:46:24;;;;;;;3.40;2.50;;;;;;;17.75;76.24;98049.16;18495596;32;20065;-63
2022/07/18 23:56:27;;;;;;;3.63;2.53;;;;;;;17.55;77.54;98036.72;18502597;32;20346;-63
